terça-feira, 2 de novembro de 2010

BOEING SAI DA PISTA AO POUSAR EM PONTIANAK, INDONÉSIA





Um Boeing 737-400 da Lionair,  prefixo PK-LIQ,   voo JT-712, de Jacarta para Pontianak (Indonésia) com 167 passageiros e 7 tripulantes, saiuda da pista 33 L as 11:20 (04:20 Z) após pousar em Pontianak. O avião parou depois do final da pista, após sofrer danos no trem de pouso. Todas as pessoas foram evacuadas,  e algumas sofrerão pequenas lesões.
O aeroporto foi fechado por pelo menos 4 horas.
NTSC da Indonésia informou que não está claro neste momento se o equipamento entrou em colapso, o NTSC está a tratar a ocorrência de um incidente grave (nota editorial indicando que não houve danos estruturais e sem ferimentos graves, os suportes de engrenagem pode realmente ser afundado em valas quando passou a área de segurança da pista). Três investigadores foram encaminhados para Pontianak.




Metars:
WIOO 020700Z 20008KT 6000 RA FEW010CB BKN007 24/23 Q1008 TEMPO 0608 -RA
WIOO 020530Z 25020KT 6000 RA FEW011CB BKN0700 24/23 Q1009 TEMPO AT 0600 5000 -RA
WIOO 020500Z 27009KT 7000 FEW010CB BKN008 25/24 Q1009 TEMPO AT 0500
WIOO 020400Z 26004KT 6000 RA FEW010CB BKN008 24/24 Q1010 TEMPO FM0300 AND 0430 -RA
WIOO 020330Z 00000KT 6000 RA FEW010CB BKN008 24/23 Q1010 TEMPO FM 0300 AND 0430 -RA
WIOO 020300Z 26008KT 6000 RA FEW010CB BKN008 24/23 Q1010 TSDULW AGAND 0430 -RA
WIOO 020230Z 30005KT 8000 BKN008 25/24 Q1010 TEMPO FEW0300 BKN0 10 0430 -RA
WIOO 020200Z 00000KT 9999 SCT011 26/24 Q1009 NOSIG

Map (Graphics: Google Earth):
Map (Graphics: Google Earth)

fonte/foto/ AvHerald

 
Enhanced by Zemanta

CLUBE DE BALONISMO SUSPENDE VOOS EM BOITUVA, APÓS MORTES

O Clube de Balonismo de Boituva (121 km de São Paulo) suspendeu a realização de voos de balão na cidade por tempo indeterminado. A decisão foi tomada após as mortes de três pessoas, na manhã do último sábado (30).

Na ocasião, outras 11 pessoas ficaram feridas na queda de dois balões tripulados. Os balões haviam decolado às 7h30, um com dez passageiros e outro com nove. Cerca de uma hora depois, foram atingidos por uma rajada de vento. 

Eles perderam a altitude e, com a queda, três pessoas que estavam no balão com nove passageiros morreram na hora --um deles era o piloto Antônio Carlos Giuste, 56. Os outros dois mortos eram o casal Daniela Gonçalves Ciarallo, 31, e Franklin Ciarallo, 31. O passeio era um presente de aniversário pelos cinco anos de casamento. 

A Polícia Civil continua apurando as causas da queda do balão. O prazo para a conclusão do inquérito policial é de 30 dias. Onze pessoas já foram ouvidas pelo delegado Silvan Resnoto, responsável pelo caso.
A Confederação de Balonismo diz que o acidente em Boituva foi o primeiro com mortes no Brasil. 

fonte/FolhaSP
Enhanced by Zemanta

APÓS ATAQUES A EMBAIXADAS, GRÉCIA DETONA BOMBA EM AEROPORTO

Dois pacotes com explosivos foram detonados nesta terça-feira (2) no aeroporto de Atenas, na Grécia. O país entrou em estado de alerta após explosões de bomba nas embaixadas da Suíça e da Rússia. Outros artefatos foram enviados às missões da Bulgária, Alemanha e Chile

Segundo uma autoridade grega citada anonimamente pela agência Reuters, os dois pacotes bombas, detonados pela polícia, estavam endereçados à Europol, e ao Tribunal de Justiça da União Europeia.

No segundo dia da onda de envio de explosivos contra embaixadas, as autoridades tentam detectar novas remessas de bomba, e orientaram diplomatas e transportadoras para que informem sobre qualquer suspeita.

Na manhã desta terça-feira, um pacote bomba de pouca potência explodiu na Embaixada da Suíça e, pouco mais de uma hora depois, outra caixa explodiu na Embaixada da Rússia, sem registro de feridos.

Outros três pacotes suspeitos, dirigidos às embaixadas de Bulgária, Alemanha e Chile, foram interceptados e detonados com segurança pela polícia.

Nervosismo tomou conta da cidade
Durante três horas, o nervosismo tomou conta da capital grega devido às diversas ligações de cidadãos que denunciavam a presença de pacotes suspeitos. O trânsito no centro de Atenas e na região norte da cidade teve que ser interrompido para não atrapalhar as investigações.

A unidade antiterrorista estava em estado de alerta máxima desde o meio-dia desta segunda-feira (1º), quando aconteceu a primeira explosão de um pacote destinado à embaixada mexicana, que feriu uma empregada de uma transportadora em Atenas. 
 
A prisão de dois jovens armados de 22 e 24 anos facilitou a intercepção de outros três pacotes, destinados às embaixadas da Bélgica, Holanda e França.
Guerrilhas urbanas ganharam força com a crise
Um dos dois rapazes presos era procurado há um ano pela polícia por sua suposta participação na organização Núcleos da Conspiração do Fogo, criada em 2008.

Em julho de 2009, o grupo cometeu atentado contra o consulado do Chile na cidade de Salônica. Desde sua criação, a organização já fez cerca de 30 atentados com bombas de gás contra gabinetes políticos, igrejas, delegacias e agências bancárias.
Depois da desarticulação das duas principais organizações terroristas gregas, a 17 de novembro e a Luta Revolucionária Popular, no início da década, a nova geração se dispersou em guerrilhas urbanas.
Tais organizações ganharam impulso após as manifestações de dezembro de 2008, quando um adolescente foi morto por um policial.

fonte/R7
Enhanced by Zemanta

MÍSTERIO REVELADO - ANTOINE SAINT-EXUPÉRY...

Foi um segredo guardado durante 64 anos. Horst Rippert, piloto alemão da Luftwaffe, admitiu, aos 88 anos, ter abatido Antoine de St Exu...